Home > Products > Valid Products > MTR

000
SAUS43 KDLH 292357
MTRGNA
METAR KGNA 292356Z AUTO 25007G17KT 19/12 A2970 RMK AO1 SLP054
T01890117 10217 20111 52002





000
SAUS43 KDLH 292257
MTRGNA
METAR KGNA 292256Z AUTO 26006G21KT 19/13 A2969 RMK AO1 SLP052
T01940128





000
SAUS43 KDLH 292257
MTRGNA
METAR KGNA 292256Z AUTO 26006G21KT 19/13 A2969 RMK AO1 SLP052
T01940128





000
SAUS43 KDLH 292157
MTRGNA
METAR KGNA 292156Z AUTO 25008G17KT 16/12 A2970 RMK AO1 SLP054
T01560117





000
SAUS43 KDLH 292157
MTRGNA
METAR KGNA 292156Z AUTO 25008G17KT 16/12 A2970 RMK AO1 SLP054
T01560117





000
SAUS43 KDLH 292057
MTRGNA
METAR KGNA 292056Z AUTO 24015G23KT 14/11 A2969 RMK AO1 SLP053
T01390106 53010





000
SAUS43 KDLH 291957
MTRGNA
METAR KGNA 291956Z AUTO 26007G16KT 13/10 A2968 RMK AO1 SLP049
T01330100





000
SAUS43 KDLH 291857
MTRGNA
METAR KGNA 291856Z AUTO 26007KT 15/11 A2967 RMK AO1 SLP045 T01500106





000
SAUS43 KDLH 291857
MTRGNA
METAR KGNA 291856Z AUTO 26007KT 15/11 A2967 RMK AO1 SLP045 T01500106





000
SAUS43 KDLH 291757
MTRGNA
METAR KGNA 291756Z AUTO 26008KT 15/11 A2966 RMK AO1 SLP042 T01500111
10161 20122 53008





000
SAUS43 KDLH 291757
MTRGNA
METAR KGNA 291756Z AUTO 26008KT 15/11 A2966 RMK AO1 SLP042 T01500111
10161 20122 53008





000
SAUS43 KDLH 291657
MTRGNA
METAR KGNA 291656Z AUTO 26007KT 14/11 A2965 RMK AO1 SLP037 T01440106





000
SAUS43 KDLH 291557
MTRGNA
METAR KGNA 291556Z AUTO 26007G15KT 13/10 A2964 RMK AO1 SLP035
T01330100





000
SAUS43 KDLH 291457
MTRGNA
METAR KGNA 291456Z AUTO 25008KT 14/11 A2964 RMK AO1 SLP034 T01390106
58004





000
SAUS43 KDLH 291457
MTRGNA
METAR KGNA 291456Z AUTO 25008KT 14/11 A2964 RMK AO1 SLP034 T01390106
58004





000
SAUS43 KDLH 291357
MTRGNA
METAR KGNA 291356Z AUTO 26006KT 13/11 A2964 RMK AO1 SLP035 T01330106





000
SAUS43 KDLH 291257
MTRGNA
METAR KGNA 291256Z AUTO 26007G14KT 15/12 A2965 RMK AO1 SLP036
T01500117





000
SAUS43 KDLH 291257
MTRGNA
METAR KGNA 291256Z AUTO 26007G14KT 15/12 A2965 RMK AO1 SLP036
T01500117





000
SAUS43 KDLH 291157
MTRGNA
METAR KGNA 291156Z AUTO 25005KT 13/11 A2965 RMK AO1 SLP036 T01330106
10156 20128 57009





000
SAUS43 KDLH 291157
MTRGNA
METAR KGNA 291156Z AUTO 25005KT 13/11 A2965 RMK AO1 SLP036 T01330106
10156 20128 57009





000
SAUS43 KDLH 291057
MTRGNA
METAR KGNA 291056Z AUTO 25006KT 13/11 A2966 RMK AO1 SLP040 T01330111





000
SAUS43 KDLH 291057
MTRGNA
METAR KGNA 291056Z AUTO 25006KT 13/11 A2966 RMK AO1 SLP040 T01330111





000
SAUS43 KDLH 290957
MTRGNA
METAR KGNA 290956Z AUTO 25006KT 14/13 A2966 RMK AO1 SLP041 T01390128





000
SAUS43 KDLH 290857
MTRGNA
METAR KGNA 290856Z AUTO 24004KT 14/13 A2968 RMK AO1 SLP045 T01390133
58014





000
SAUS43 KDLH 290857
MTRGNA
METAR KGNA 290856Z AUTO 24004KT 14/13 A2968 RMK AO1 SLP045 T01390133
58014





000
SAUS43 KDLH 290757
MTRGNA
METAR KGNA 290756Z AUTO 25004KT 13/13 A2969 RMK AO1 SLP049 T01330128





000
SAUS43 KDLH 290657
MTRGNA
METAR KGNA 290656Z AUTO 25003KT 13/13 A2971 RMK AO1 SLP054 T01330128





000
SAUS43 KDLH 290557
MTRGNA
METAR KGNA 290556Z AUTO 22003KT 16/15 A2972 RMK AO1 SLP058 T01560150
10194 20144 402280133 56009





000
SAUS43 KDLH 290557
MTRGNA
METAR KGNA 290556Z AUTO 22003KT 16/15 A2972 RMK AO1 SLP058 T01560150
10194 20144 402280133 56009





000
SAUS43 KDLH 290457
MTRGNA
METAR KGNA 290456Z AUTO 00000KT 18/16 A2972 RMK AO1 SLP062 T01780156





000
SAUS43 KDLH 290357
MTRGNA
METAR KGNA 290356Z AUTO 06005KT 16/15 A2972 RMK AO1 SLP063 T01610150





000
SAUS43 KDLH 290257
MTRGNA
METAR KGNA 290256Z AUTO 00000KT 17/15 A2974 RMK AO1 SLP069 T01720150
58005





000
SAUS43 KDLH 290257
MTRGNA
METAR KGNA 290256Z AUTO 00000KT 17/15 A2974 RMK AO1 SLP069 T01720150
58005





000
SAUS43 KDLH 290157
MTRGNA
METAR KGNA 290156Z AUTO 07003KT 18/16 A2975 RMK AO1 SLP072 T01780156





000
SAUS43 KDLH 290057
MTRGNA
METAR KGNA 290056Z AUTO 04003KT 17/14 A2976 RMK AO1 SLP074 T01720144





000
SAUS43 KDLH 282357
MTRGNA
METAR KGNA 282356Z AUTO 04004KT 18/15 A2976 RMK AO1 SLP073 T01830150
10228 20172 56013





000
SAUS43 KDLH 282357
MTRGNA
METAR KGNA 282356Z AUTO 04004KT 18/15 A2976 RMK AO1 SLP073 T01830150
10228 20172 56013





000
SAUS43 KDLH 282257
MTRGNA
METAR KGNA 282256Z AUTO VRB03KT 21/16 A2977 RMK AO1 SLP075 T02110161





000
SAUS43 KDLH 282257
MTRGNA
METAR KGNA 282256Z AUTO VRB03KT 21/16 A2977 RMK AO1 SLP075 T02110161





000
SAUS43 KDLH 282157
MTRGNA
METAR KGNA 282156Z AUTO 08004KT 20/16 A2978 RMK AO1 SLP080 T02000156





000
SAUS43 KDLH 282157
MTRGNA
METAR KGNA 282156Z AUTO 08004KT 20/16 A2978 RMK AO1 SLP080 T02000156





000
SAUS43 KDLH 282057
MTRGNA
METAR KGNA 282056Z AUTO 04005KT 21/16 A2980 RMK AO1 SLP087 T02060156
56009





000
SAUS43 KDLH 282057
MTRGNA
METAR KGNA 282056Z AUTO 04005KT 21/16 A2980 RMK AO1 SLP087 T02060156
56009





000
SAUS43 KDLH 281957
MTRGNA
METAR KGNA 281956Z AUTO 05007KT 21/15 A2981 RMK AO1 SLP089 T02110150





000
SAUS43 KDLH 281957
MTRGNA
METAR KGNA 281956Z AUTO 05007KT 21/15 A2981 RMK AO1 SLP089 T02110150





000
SAUS43 KDLH 281857
MTRGNA
METAR KGNA 281856Z AUTO 06010KT 23/16 A2981 RMK AO1 SLP090 T02280156





000
SAUS43 KDLH 281857
MTRGNA
METAR KGNA 281856Z AUTO 06010KT 23/16 A2981 RMK AO1 SLP090 T02280156





000
SAUS43 KDLH 281757
MTRGNA
METAR KGNA 281756Z AUTO 06009KT 22/16 A2983 RMK AO1 SLP095 T02170156
10217 20144 56013





000
SAUS43 KDLH 281757
MTRGNA
METAR KGNA 281756Z AUTO 06009KT 22/16 A2983 RMK AO1 SLP095 T02170156
10217 20144 56013





000
SAUS43 KDLH 281657
MTRGNA
METAR KGNA 281656Z AUTO 07009KT 17/14 A2984 RMK AO1 SLP102 T01720139





000
SAUS43 KDLH 281657
MTRGNA
METAR KGNA 281656Z AUTO 07009KT 17/14 A2984 RMK AO1 SLP102 T01720139





000
SAUS43 KDLH 281557
MTRGNA
METAR KGNA 281556Z AUTO 06008KT 15/13 A2984 RMK AO1 SLP102 T01500128





000
SAUS43 KDLH 281457
MTRGNA
METAR KGNA 281456Z AUTO 06009KT 15/13 A2987 RMK AO1 SLP111 T01500133
58006





000
SAUS43 KDLH 281357
MTRGNA
METAR KGNA 281356Z AUTO 06006KT 15/13 A2989 RMK AO1 SLP120 T01500133





000
SAUS43 KDLH 281257
MTRGNA
METAR KGNA 281256Z AUTO 07007KT 15/14 A2989 RMK AO1 SLP116 T01500139





000
SAUS43 KDLH 281257
MTRGNA
METAR KGNA 281256Z AUTO 07007KT 15/14 A2989 RMK AO1 SLP116 T01500139





000
SAUS43 KDLH 281157
MTRGNA
METAR KGNA 281156Z AUTO 06005KT 16/14 A2988 RMK AO1 SLP115 T01560139
10178 20133 58006 $





000
SAUS43 KDLH 281157
MTRGNA
METAR KGNA 281156Z AUTO 06005KT 16/14 A2988 RMK AO1 SLP115 T01560139
10178 20133 58006 $





000
SAUS43 KDLH 281057
MTRGNA
METAR KGNA 281056Z AUTO 04003KT 16/14 A2991 RMK AO1 SLP123 T01610139
$





000
SAUS43 KDLH 280957
MTRGNA
METAR KGNA 280956Z AUTO 05004KT 15/13 A2990 RMK AO1 SLP122 T01500133
$





000
SAUS43 KDLH 280857
MTRGNA
METAR KGNA 280856Z AUTO 05004KT 14/13 A2990 RMK AO1 SLP124 T01440128
56018 $





000
SAUS43 KDLH 280757
MTRGNA
METAR KGNA 280756Z AUTO 00000KT 16/13 A2992 RMK AO1 SLP128 T01560133
$





000
SAUS43 KDLH 280657
MTRGNA
METAR KGNA 280656Z AUTO 01003KT 16/14 A2994 RMK AO1 SLP136 T01610139
$





000
SAUS43 KDLH 280557
MTRGNA
METAR KGNA 280556Z AUTO 33003KT 16/14 A2996 RMK AO1 SLP142 T01610144
10233 20133 402330111 52002 $





000
SAUS43 KDLH 280557
MTRGNA
METAR KGNA 280556Z AUTO 33003KT 16/14 A2996 RMK AO1 SLP142 T01610144
10233 20133 402330111 52002 $





000
SAUS43 KDLH 280457
MTRGNA
METAR KGNA 280456Z AUTO 00000KT 16/15 A2996 RMK AO1 SLP142 T01610150
$





000
SAUS43 KDLH 280357
MTRGNA
METAR KGNA 280356Z AUTO 00000KT 17/15 A2996 RMK AO1 SLP141 T01670150
$





000
SAUS43 KDLH 280257
MTRGNA
METAR KGNA 280256Z AUTO 00000KT 18/16 A2995 RMK AO1 SLP140 T01830161
53007 $





000
SAUS43 KDLH 280257
MTRGNA
METAR KGNA 280256Z AUTO 00000KT 18/16 A2995 RMK AO1 SLP140 T01830161
53007 $





000
SAUS43 KDLH 280157
MTRGNA
METAR KGNA 280156Z AUTO 05003KT 18/17 A2994 RMK AO1 SLP138 T01780167
$





000
SAUS43 KDLH 280157
MTRGNA
METAR KGNA 280156Z AUTO 05003KT 18/17 A2994 RMK AO1 SLP138 T01780167
$





000
SAUS43 KDLH 280057
MTRGNA
METAR KGNA 280056Z AUTO 00000KT 20/18 A2993 RMK AO1 SLP131 T02000178
$





000
SAUS43 KDLH 272357
MTRGNA
METAR KGNA 272356Z AUTO 00000KT 21/18 A2993 RMK AO1 SLP130 T02110183
10217 20156 56010 $





000
SAUS43 KDLH 272257
MTRGNA
METAR KGNA 272256Z AUTO 00000KT 21/17 A2994 RMK AO1 SLP134 T02060172
$





000
SAUS43 KDLH 272157
MTRGNA
METAR KGNA 272156Z AUTO 00000KT 21/17 A2995 RMK AO1 SLP139 T02060172
$





000
SAUS43 KDLH 272057
MTRGNA
METAR KGNA 272056Z AUTO 24005KT 19/16 A2996 RMK AO1 SLP143 T01890161
58006 $





000
SAUS43 KDLH 272057
MTRGNA
METAR KGNA 272056Z AUTO 24005KT 19/16 A2996 RMK AO1 SLP143 T01890161
58006 $





000
SAUS43 KDLH 271957
MTRGNA
METAR KGNA 271956Z AUTO 25006KT 18/15 A2997 RMK AO1 SLP148 T01780150





000
SAUS43 KDLH 271857
MTRGNA
METAR KGNA 271856Z AUTO 24008KT 17/13 A2998 RMK AO1 SLP148 T01670133





000
SAUS43 KDLH 271857
MTRGNA
METAR KGNA 271856Z AUTO 24008KT 17/13 A2998 RMK AO1 SLP148 T01670133





000
SAUS43 KDLH 271757
MTRGNA
METAR KGNA 271756Z AUTO 25005KT 17/14 A2998 RMK AO1 SLP150 T01670139
10178 20122 58004





000
SAUS43 KDLH 271757
MTRGNA
METAR KGNA 271756Z AUTO 25005KT 17/14 A2998 RMK AO1 SLP150 T01670139
10178 20122 58004





000
SAUS43 KDLH 271657
MTRGNA
METAR KGNA 271656Z AUTO 24008KT 15/13 A2999 RMK AO1 SLP155 T01500128





000
SAUS43 KDLH 271657
MTRGNA
METAR KGNA 271656Z AUTO 24008KT 15/13 A2999 RMK AO1 SLP155 T01500128





000
SAUS43 KDLH 271557
MTRGNA
METAR KGNA 271556Z AUTO 24007KT 16/13 A2999 RMK AO1 SLP153 T01610133





000
SAUS43 KDLH 271457
MTRGNA
METAR KGNA 271456Z AUTO 25005KT 14/12 A2999 RMK AO1 SLP155 T01440117
53012





000
SAUS43 KDLH 271357
MTRGNA
METAR KGNA 271356Z AUTO 25005KT 13/11 A2998 RMK AO1 SLP150 T01330111





000
SAUS43 KDLH 271357
MTRGNA
METAR KGNA 271356Z AUTO 25005KT 13/11 A2998 RMK AO1 SLP150 T01330111





000
SAUS43 KDLH 271257
MTRGNA
METAR KGNA 271256Z AUTO 24003KT 16/14 A2997 RMK AO1 SLP145 T01610139
$





000
SAUS43 KDLH 271157
MTRGNA
METAR KGNA 271156Z AUTO 00000KT 18/15 A2996 RMK AO1 SLP142 T01780150
10178 20111 51007 $





000
SAUS43 KDLH 271157
MTRGNA
METAR KGNA 271156Z AUTO 00000KT 18/15 A2996 RMK AO1 SLP142 T01780150
10178 20111 51007 $





000
SAUS43 KDLH 271057
MTRGNA
METAR KGNA 271056Z AUTO 26003KT 13/13 A2995 RMK AO1 SLP142 T01330128
$





000
SAUS43 KDLH 271057
MTRGNA
METAR KGNA 271056Z AUTO 26003KT 13/13 A2995 RMK AO1 SLP142 T01330128
$





000
SAUS43 KDLH 270957
MTRGNA
METAR KGNA 270956Z AUTO 00000KT 15/14 A2995 RMK AO1 SLP138 T01500144
$





000
SAUS43 KDLH 270857
MTRGNA
METAR KGNA 270856Z AUTO 00000KT 17/15 A2994 RMK AO1 SLP135 T01670150
51005 $





000
SAUS43 KDLH 270757
MTRGNA
METAR KGNA 270756Z AUTO 00000KT 13/13 A2993 RMK AO1 SLP135 T01330128
$





000
SAUS43 KDLH 270757
MTRGNA
METAR KGNA 270756Z AUTO 00000KT 13/13 A2993 RMK AO1 SLP135 T01330128
$





000
SAUS43 KDLH 270657
MTRGNA
METAR KGNA 270656Z AUTO 00000KT 16/15 A2993 RMK AO1 SLP133 T01610150
$





000
SAUS43 KDLH 270657
MTRGNA
METAR KGNA 270656Z AUTO 00000KT 16/15 A2993 RMK AO1 SLP133 T01610150
$





000
SAUS43 KDLH 270557
MTRGNA
METAR KGNA 270556Z AUTO 00000KT 16/14 A2992 RMK AO1 SLP131 T01560139
10189 20122 401940106 51001 $





000
SAUS43 KDLH 270457
MTRGNA
METAR KGNA 270456Z AUTO 00000KT 15/14 A2992 RMK AO1 SLP132 T01500144
$





000
SAUS43 KDLH 270357
MTRGNA
METAR KGNA 270356Z AUTO 00000KT 18/16 A2993 RMK AO1 SLP134 T01780156
$





000
SAUS43 KDLH 270257
MTRGNA
METAR KGNA 270256Z AUTO 00000KT 16/14 A2992 RMK AO1 SLP130 T01610144
53009 $





000
SAUS43 KDLH 270157
MTRGNA
METAR KGNA 270156Z AUTO 00000KT 16/13 A2989 RMK AO1 SLP122 T01560133
$





000
SAUS43 KDLH 270057
MTRGNA
METAR KGNA 270056Z AUTO 25003KT 14/13 A2989 RMK AO1 SLP122 T01440133
$





000
SAUS43 KDLH 270057
MTRGNA
METAR KGNA 270056Z AUTO 25003KT 14/13 A2989 RMK AO1 SLP122 T01440133
$





    US Dept of Commerce
    National Oceanic and Atmospheric Administration
    National Weather Service
    1325 East West Highway
    Silver Spring, MD 20910
    Page Author: NWS Internet Services Team
Disclaimer
Information Quality
Credits
Glossary
Privacy Policy
Freedom of Information Act (FOIA)
About Us
Career Opportunities